Time;durP1;ratioP1;P1;durP2;ratioP2;P2;SDS_P1;SDS_P2;PMS_P1;PMS_P2;Temp;Humidity;BMP_temperature;BMP_pressure;BME280_temperature;BME280_humidity;BME280_pressure;Samples;Min_cycle;Max_cycle;Signal;HPM_P1;HPM_P2
2021/12/30 00:01:35;;;;;;;;;;;;;;;;;;;;;
2021/12/30 00:02:39;;;;;;;24.85;12.18;;;;;;;;;;2584517;22;19999;-79
2021/12/30 00:03:53;;;;;;;28.02;13.95;;;;;;;;;;2586386;23;20004;-78
2021/12/30 00:06:41;;;;;;;29.33;13.90;;;;;;;;;;2577756;22;20893;-79
2021/12/30 00:07:44;;;;;;;28.00;14.63;;;;;;;;;;2572912;23;20008;-79
2021/12/30 00:09:14;;;;;;;27.63;13.60;;;;;;;;;;2575369;23;20001;-78
2021/12/30 00:10:23;;;;;;;28.20;14.68;;;;;;;;;;2578433;23;20007;-79
2021/12/30 00:11:46;;;;;;;;;;;;;;;;;;;;;
2021/12/30 00:13:39;;;;;;;32.05;15.20;;;;;;;;;;2579253;23;20012;-79
2021/12/30 00:15:03;;;;;;;;;;;;;;;;;;2577018;23;20016;-79
2021/12/30 00:16:32;;;;;;;29.52;15.18;;;;;;;;;;2578327;23;19923;-78
2021/12/30 00:17:56;;;;;;;27.83;13.80;;;;;;;;;;2579233;23;20024;-79
2021/12/30 00:18:56;;;;;;;33.67;15.60;;;;;;;;;;2578461;23;20010;-79
2021/12/30 00:20:32;;;;;;;;;;;;;;;;;;2579737;23;19996;-80
2021/12/30 00:22:12;;;;;;;;;;;;;;;;;;;;;
2021/12/30 00:24:07;;;;;;;;;;;;;;;;;;;;;
2021/12/30 00:26:21;;;;;;;31.58;14.85;;;;;;;;;;2574552;23;20003;-77
2021/12/30 00:27:11;;;;;;;26.15;15.63;;;;;;;;;;2556602;23;20004;-79
2021/12/30 00:28:18;;;;;;;31.92;16.45;;;;;;;;;;2571552;23;20414;-78
2021/12/30 00:29:18;;;;;;;28.92;15.23;;;;;;;;;;2571466;23;20007;-79
2021/12/30 00:30:19;;;;;;;;;;;;;;;;;;2572066;23;20004;-79
2021/12/30 00:31:19;;;;;;;27.27;15.27;;;;;;;;;;2571464;23;19986;-78
2021/12/30 00:32:19;;;;;;;30.67;15.38;;;;;;;;;;2571340;23;20019;-79
2021/12/30 00:33:20;;;;;;;;;;;;;;;;;;2571239;23;20067;-78
2021/12/30 00:34:20;;;;;;;27.03;14.90;;;;;;;;;;2570905;23;19911;-78
2021/12/30 00:35:21;;;;;;;32.00;15.38;;;;;;;;;;2570684;23;19996;-79
2021/12/30 00:36:21;;;;;;;;;;;;;;;;;;2571841;23;20078;-78
2021/12/30 00:37:21;;;;;;;26.58;14.38;;;;;;;;;;2571201;23;20326;-78
2021/12/30 00:38:22;;;;;;;;;;;;;;;;;;2571836;23;20084;-78
2021/12/30 00:39:22;;;;;;;27.95;15.07;;;;;;;;;;2571112;23;19910;-78
2021/12/30 00:40:23;;;;;;;;;;;;;;;;;;2571766;23;20019;-78
2021/12/30 00:41:25;;;;;;;22.60;13.05;;;;;;;;;;2570964;23;19949;-79
2021/12/30 00:42:26;;;;;;;25.17;13.55;;;;;;;;;;2570945;23;19993;-78
2021/12/30 00:43:26;;;;;;;;;;;;;;;;;;2571665;23;19992;-78
2021/12/30 00:44:27;;;;;;;22.75;13.00;;;;;;;;;;2571008;23;19908;-79
2021/12/30 00:45:28;;;;;;;23.77;13.30;;;;;;;;;;2571009;23;20455;-79
2021/12/30 00:46:29;;;;;;;21.95;12.77;;;;;;;;;;2570237;23;20007;-79
2021/12/30 00:47:29;;;;;;;;;;;;;;;;;;2558605;23;20402;-79
2021/12/30 00:48:29;;;;;;;23.33;13.68;;;;;;;;;;2570800;23;20300;-78
2021/12/30 00:49:30;;;;;;;;;;;;;;;;;;2576420;23;20040;-79
2021/12/30 00:50:31;;;;;;;21.98;12.65;;;;;;;;;;2577701;23;19904;-79
2021/12/30 00:51:31;;;;;;;19.98;12.93;;;;;;;;;;2579339;23;20012;-79
2021/12/30 00:52:32;;;;;;;;;;;;;;;;;;2573258;23;20035;-79
2021/12/30 00:53:32;;;;;;;25.27;12.03;;;;;;;;;;2571222;23;19904;-78
2021/12/30 00:54:33;;;;;;;;;;;;;;;;;;2571933;23;20416;-78
2021/12/30 00:55:34;;;;;;;20.07;12.00;;;;;;;;;;2571233;23;19908;-79
2021/12/30 00:56:35;;;;;;;;;;;;;;;;;;2572036;23;20079;-78
2021/12/30 00:57:35;;;;;;;22.95;11.50;;;;;;;;;;2570372;23;19904;-78
2021/12/30 00:58:35;;;;;;;;;;;;;;;;;;2570715;23;20387;-79
2021/12/30 00:59:36;;;;;;;21.63;12.50;;;;;;;;;;2570680;23;19904;-79
2021/12/30 01:00:39;;;;;;;25.48;12.95;;;;;;;;;;2570828;23;20001;-79
2021/12/30 01:01:39;;;;;;;23.02;12.75;;;;;;;;;;2570747;23;20372;-79
2021/12/30 01:02:40;;;;;;;;;;;;;;;;;;2571239;23;20004;-78
2021/12/30 01:03:41;;;;;;;21.02;11.85;;;;;;;;;;2570691;23;20235;-79
2021/12/30 01:04:41;;;;;;;;;;;;;;;;;;2571147;23;20084;-79
2021/12/30 01:05:43;;;;;;;22.35;12.23;;;;;;;;;;2570432;23;20327;-79
2021/12/30 01:06:46;;;;;;;23.52;13.05;;;;;;;;;;2570608;23;20008;-78
2021/12/30 01:07:47;;;;;;;25.48;12.90;;;;;;;;;;2570667;23;20055;-79
2021/12/30 01:08:47;;;;;;;;;;;;;;;;;;2571153;23;20004;-80
2021/12/30 01:09:48;;;;;;;24.57;12.80;;;;;;;;;;2570706;23;19911;-80
2021/12/30 01:10:49;;;;;;;;;;;;;;;;;;2571172;23;20078;-81
2021/12/30 01:11:49;;;;;;;22.00;12.90;;;;;;;;;;2570656;23;19926;-80
2021/12/30 01:12:50;;;;;;;;;;;;;;;;;;2571014;23;20383;-81
2021/12/30 01:14:15;;;;;;;22.50;12.55;;;;;;;;;;2570637;23;20325;-80
2021/12/30 01:15:18;;;;;;;22.67;12.32;;;;;;;;;;2570672;23;20000;-80
2021/12/30 01:16:22;;;;;;;23.85;13.25;;;;;;;;;;2570464;23;20018;-80
2021/12/30 01:17:42;;;;;;;27.33;13.55;;;;;;;;;;2570653;23;20015;-80
2021/12/30 01:18:59;;;;;;;23.15;13.05;;;;;;;;;;2557543;23;20004;-78
2021/12/30 01:19:59;;;;;;;25.40;13.75;;;;;;;;;;2560884;23;19997;-80
2021/12/30 01:21:03;;;;;;;;;;;;;;;;;;2571073;23;19996;-79
2021/12/30 01:22:03;;;;;;;24.50;12.85;;;;;;;;;;2570507;23;19904;-79
2021/12/30 01:23:03;;;;;;;;;;;;;;;;;;2571109;23;20048;-79
2021/12/30 01:24:04;;;;;;;22.48;12.35;;;;;;;;;;2570457;23;19935;-79
2021/12/30 01:25:07;;;;;;;;;;;;;;;;;;2571147;23;20062;-80
2021/12/30 01:26:08;;;;;;;21.38;11.40;;;;;;;;;;2570424;23;19915;-80
2021/12/30 01:27:09;;;;;;;21.95;12.25;;;;;;;;;;2557383;23;20056;-79
2021/12/30 01:28:09;;;;;;;;;;;;;;;;;;2558206;23;20067;-80
2021/12/30 01:29:09;;;;;;;19.50;11.50;;;;;;;;;;2570242;23;19911;-79
2021/12/30 01:30:12;;;;;;;;;;;;;;;;;;2571012;23;20012;-79
2021/12/30 01:31:12;;;;;;;21.80;12.45;;;;;;;;;;2570383;23;19942;-79
2021/12/30 01:32:13;;;;;;;;;;;;;;;;;;2570872;23;20008;-80
2021/12/30 01:33:13;;;;;;;18.55;10.70;;;;;;;;;;2570544;23;20339;-80
2021/12/30 01:34:14;;;;;;;;;;;;;;;;;;2557960;23;20001;-80
2021/12/30 01:35:22;;;;;;;19.57;10.30;;;;;;;;;;2545201;23;19923;-80
2021/12/30 01:36:25;;;;;;;17.52;9.80;;;;;;;;;;2546467;23;20009;-80
2021/12/30 01:37:26;;;;;;;18.35;9.88;;;;;;;;;;2545827;23;20009;-80
2021/12/30 01:38:26;;;;;;;;;;;;;;;;;;2545857;23;20149;-80
2021/12/30 01:39:29;;;;;;;20.77;10.60;;;;;;;;;;2557632;23;19936;-80
2021/12/30 01:40:30;;;;;;;18.23;9.77;;;;;;;;;;2557391;23;20001;-80
2021/12/30 01:41:31;;;;;;;17.60;11.00;;;;;;;;;;2557700;23;20043;-80
2021/12/30 01:42:32;;;;;;;;;;;;;;;;;;2571063;23;20061;-80
2021/12/30 01:43:35;;;;;;;16.70;10.50;;;;;;;;;;2557540;23;20271;-80
2021/12/30 01:44:35;;;;;;;15.02;9.20;;;;;;;;;;2557756;23;20313;-80
2021/12/30 01:45:36;;;;;;;;;;;;;;;;;;2557886;23;20024;-79
2021/12/30 01:46:41;;;;;;;12.57;8.20;;;;;;;;;;2557469;23;19904;-80
2021/12/30 01:47:49;;;;;;;13.93;8.65;;;;;;;;;;2570498;23;20071;-79
2021/12/30 01:48:52;;;;;;;13.93;8.55;;;;;;;;;;2557286;23;20084;-79
2021/12/30 01:49:54;;;;;;;16.55;9.25;;;;;;;;;;2558071;23;20028;-81
2021/12/30 01:50:55;;;;;;;14.35;7.75;;;;;;;;;;2570334;23;20079;-79
2021/12/30 01:51:56;;;;;;;;;;;;;;;;;;2571041;23;20051;-79
2021/12/30 01:52:58;;;;;;;11.93;7.88;;;;;;;;;;2570333;23;20312;-80
2021/12/30 01:53:59;;;;;;;14.57;7.75;;;;;;;;;;2570526;23;19996;-79
2021/12/30 01:54:59;;;;;;;;;;;;;;;;;;2571644;23;20000;-79
2021/12/30 01:56:00;;;;;;;12.33;7.07;;;;;;;;;;2558163;23;19946;-79
2021/12/30 01:57:05;;;;;;;13.80;7.65;;;;;;;;;;2558242;23;20012;-79
2021/12/30 01:58:08;;;;;;;14.45;8.52;;;;;;;;;;2571305;23;20388;-79
2021/12/30 01:59:09;;;;;;;13.30;7.45;;;;;;;;;;2571372;23;20000;-80
2021/12/30 02:00:14;;;;;;;;;;;;;;;;;;2571821;23;19996;-80
2021/12/30 02:01:14;;;;;;;12.77;6.88;;;;;;;;;;2571184;23;19991;-80
2021/12/30 02:02:14;;;;;;;;;;;;;;;;;;2571850;23;19988;-80
2021/12/30 02:03:16;;;;;;;12.03;7.13;;;;;;;;;;2571453;23;19931;-80
2021/12/30 02:04:16;;;;;;;11.15;6.93;;;;;;;;;;2571186;23;20020;-80
2021/12/30 02:05:17;;;;;;;;;;;;;;;;;;2571794;23;19993;-80
2021/12/30 02:06:18;;;;;;;13.32;7.38;;;;;;;;;;2571214;23;20307;-80
2021/12/30 02:07:18;;;;;;;;;;;;;;;;;;2571672;23;20416;-80
2021/12/30 02:08:19;;;;;;;11.50;6.70;;;;;;;;;;2571192;23;19914;-80
2021/12/30 02:09:21;;;;;;;10.80;6.65;;;;;;;;;;2571216;23;19993;-79
2021/12/30 02:10:21;;;;;;;12.32;6.93;;;;;;;;;;2571240;23;20332;-80
2021/12/30 02:11:22;;;;;;;;;;;;;;;;;;2571751;23;19997;-79
2021/12/30 02:12:22;;;;;;;13.70;7.93;;;;;;;;;;2571262;23;19939;-79
2021/12/30 02:13:23;;;;;;;;;;;;;;;;;;2571791;23;20007;-80
2021/12/30 02:14:23;;;;;;;11.70;7.83;;;;;;;;;;2571128;23;20345;-80
2021/12/30 02:15:26;;;;;;;15.68;8.35;;;;;;;;;;2558040;23;20000;-81
2021/12/30 02:16:26;;;;;;;12.70;8.35;;;;;;;;;;2558516;23;19993;-80
2021/12/30 02:17:27;;;;;;;;;;;;;;;;;;2558662;23;20021;-81
2021/12/30 02:18:28;;;;;;;14.25;7.15;;;;;;;;;;2558140;23;19951;-79
2021/12/30 02:19:29;;;;;;;10.95;7.53;;;;;;;;;;2558344;23;20022;-80
2021/12/30 02:20:49;;;;;;;;;;;;;;;;;;2571744;23;19993;-79
2021/12/30 02:21:50;;;;;;;11.85;7.03;;;;;;;;;;2571292;23;19939;-81
2021/12/30 02:22:50;;;;;;;;;;;;;;;;;;2571708;23;19997;-79
2021/12/30 02:23:50;;;;;;;12.93;7.40;;;;;;;;;;2571205;23;19990;-79
2021/12/30 02:24:51;;;;;;;;;;;;;;;;;;2571731;23;20393;-79
2021/12/30 02:25:56;;;;;;;13.98;7.05;;;;;;;;;;2571135;23;19904;-79
2021/12/30 02:26:56;;;;;;;12.65;7.43;;;;;;;;;;2571073;23;20070;-79
2021/12/30 02:27:59;;;;;;;;;;;;;;;;;;2558659;23;20424;-79
2021/12/30 02:29:00;;;;;;;13.20;7.07;;;;;;;;;;2558631;23;19915;-79
2021/12/30 02:30:03;;;;;;;;;;;;;;;;;;2571895;23;20007;-79
2021/12/30 02:31:08;;;;;;;12.80;7.28;;;;;;;;;;2571256;23;19908;-80
2021/12/30 02:32:11;;;;;;;12.52;7.35;;;;;;;;;;2571171;23;19997;-78
2021/12/30 02:33:12;;;;;;;12.80;7.10;;;;;;;;;;2557959;23;20075;-80
2021/12/30 02:34:16;;;;;;;;;;;;;;;;;;2546460;23;20064;-79
2021/12/30 02:35:16;;;;;;;12.70;7.85;;;;;;;;;;2558865;23;19904;-80
2021/12/30 02:36:22;;;;;;;;;;;;;;;;;;2571465;23;20064;-80
2021/12/30 02:37:22;;;;;;;13.40;6.95;;;;;;;;;;2558055;23;19915;-80
2021/12/30 02:38:25;;;;;;;;;;;;;;;;;;2558767;23;20003;-79
2021/12/30 02:39:26;;;;;;;11.57;6.97;;;;;;;;;;2571022;23;19932;-80
2021/12/30 02:40:32;;;;;;;;;;;;;;;;;;2558508;23;20001;-80
2021/12/30 02:41:35;;;;;;;15.02;8.68;;;;;;;;;;2559109;23;19979;-80
2021/12/30 02:42:36;;;;;;;15.13;8.02;;;;;;;;;;2557926;23;20076;-79
2021/12/30 02:43:36;;;;;;;;;;;;;;;;;;2558589;23;19997;-79
2021/12/30 02:44:36;;;;;;;9.88;6.78;;;;;;;;;;2571080;23;20255;-78
2021/12/30 02:45:37;;;;;;;;;;;;;;;;;;2558424;23;20096;-80
2021/12/30 02:46:39;;;;;;;16.75;8.48;;;;;;;;;;2558102;23;20295;-78
2021/12/30 02:47:39;;;;;;;13.00;7.68;;;;;;;;;;2571096;23;20007;-81
2021/12/30 02:48:41;;;;;;;;;;;;;;;;;;2571631;23;20024;-80
2021/12/30 02:49:42;;;;;;;16.75;8.20;;;;;;;;;;2571136;23;20315;-80
2021/12/30 02:50:43;;;;;;;;;;;;;;;;;;2571617;23;20001;-80
2021/12/30 02:51:44;;;;;;;15.63;7.60;;;;;;;;;;2571087;23;19903;-78
2021/12/30 02:52:44;;;;;;;17.85;9.75;;;;;;;;;;2557871;23;20033;-78
2021/12/30 02:53:44;;;;;;;;;;;;;;;;;;2558720;23;20019;-78
2021/12/30 02:54:45;;;;;;;16.60;9.38;;;;;;;;;;2571157;23;19908;-78
2021/12/30 02:55:48;;;;;;;;;;;;;;;;;;2571414;23;20423;-78
2021/12/30 02:56:49;;;;;;;18.98;10.10;;;;;;;;;;2571030;23;19904;-78
2021/12/30 02:57:49;;;;;;;;;;;;;;;;;;2571542;23;20318;-78
2021/12/30 02:58:50;;;;;;;24.13;10.87;;;;;;;;;;2571085;23;20303;-78
2021/12/30 02:59:50;;;;;;;;;;;;;;;;;;2571583;23;20000;-78
2021/12/30 03:01:03;;;;;;;20.50;10.63;;;;;;;;;;2571101;23;19966;-78
2021/12/30 03:02:04;;;;;;;20.92;10.90;;;;;;;;;;2558060;23;20001;-78
2021/12/30 03:03:05;;;;;;;;;;;;;;;;;;2558641;23;20001;-79
2021/12/30 03:04:05;;;;;;;18.33;10.30;;;;;;;;;;2557984;23;19908;-78
2021/12/30 03:05:06;;;;;;;;;;;;;;;;;;2546429;23;20041;-78
2021/12/30 03:06:09;;;;;;;22.80;10.75;;;;;;;;;;2545442;23;19904;-78
2021/12/30 03:07:10;;;;;;;18.00;9.57;;;;;;;;;;2566364;23;20015;-78
2021/12/30 03:08:10;;;;;;;;;;;;;;;;;;2571616;23;20000;-78
2021/12/30 03:09:11;;;;;;;16.13;8.73;;;;;;;;;;2571115;23;20314;-79
2021/12/30 03:10:18;;;;;;;16.92;9.13;;;;;;;;;;2571240;23;20000;-78
2021/12/30 03:11:19;;;;;;;14.23;8.52;;;;;;;;;;2571033;23;20392;-80
2021/12/30 03:12:20;;;;;;;16.38;8.93;;;;;;;;;;2570929;23;20181;-80
2021/12/30 03:13:29;;;;;;;;;;;;;;;;;;2570953;23;20054;-80
2021/12/30 03:14:29;;;;;;;13.43;8.38;;;;;;;;;;2570380;23;19903;-79
2021/12/30 03:15:31;;;;;;;;;;;;;;;;;;2570965;23;20026;-79
2021/12/30 03:16:35;;;;;;;;;;;;;;;;;;2571623;23;20233;-79
2021/12/30 03:17:37;;;;;;;21.67;9.55;;;;;;;;;;2571007;23;20243;-79
2021/12/30 03:18:39;;;;;;;14.40;7.57;;;;;;;;;;2571057;23;20028;-79
2021/12/30 03:19:40;;;;;;;11.73;6.90;;;;;;;;;;2571075;23;20028;-80
2021/12/30 03:20:40;;;;;;;;;;;;;;;;;;2571706;23;20101;-80
2021/12/30 03:21:40;;;;;;;8.98;5.78;;;;;;;;;;2571075;23;20307;-80
2021/12/30 03:22:42;;;;;;;;;;;;;;;;;;2571605;23;20325;-79
2021/12/30 03:23:43;;;;;;;9.55;6.53;;;;;;;;;;2570383;23;19903;-80
2021/12/30 03:24:43;;;;;;;;;;;;;;;;;;2558444;23;20005;-80
2021/12/30 03:25:44;;;;;;;7.93;5.23;;;;;;;;;;2570217;23;20157;-80
2021/12/30 03:26:44;;;;;;;;;;;;;;;;;;2570988;23;20047;-79
2021/12/30 03:27:45;;;;;;;5.40;4.10;;;;;;;;;;2570461;23;19903;-79
2021/12/30 03:28:45;;;;;;;;;;;;;;;;;;2570903;23;20046;-79
2021/12/30 03:29:46;;;;;;;8.80;5.77;;;;;;;;;;2557916;23;19904;-77
2021/12/30 03:30:46;;;;;;;;;;;;;;;;;;2571029;23;20012;-79
2021/12/30 03:31:47;;;;;;;4.43;3.87;;;;;;;;;;2570949;23;19908;-79
2021/12/30 03:32:48;;;;;;;;;;;;;;;;;;2571507;23;20050;-79
2021/12/30 03:33:49;;;;;;;4.88;4.35;;;;;;;;;;2571111;23;19904;-79
2021/12/30 03:34:50;;;;;;;6.55;4.47;;;;;;;;;;2570971;23;20000;-79
2021/12/30 03:35:50;;;;;;;;;;;;;;;;;;2571363;23;20001;-79
2021/12/30 03:36:50;;;;;;;3.90;3.37;;;;;;;;;;2570999;23;19907;-79
2021/12/30 03:37:51;;;;;;;;;;;;;;;;;;2571584;23;20328;-79
2021/12/30 03:38:53;;;;;;;6.00;3.97;;;;;;;;;;2570901;23;19911;-79
2021/12/30 03:39:54;;;;;;;4.45;3.80;;;;;;;;;;2570135;23;20388;-79
2021/12/30 03:40:54;;;;;;;;;;;;;;;;;;2570916;23;20062;-79
2021/12/30 03:41:54;;;;;;;3.92;3.53;;;;;;;;;;2571138;23;20212;-79
2021/12/30 03:42:55;;;;;;;;;;;;;;;;;;2571485;23;20027;-79
2021/12/30 03:43:59;;;;;;;4.32;3.50;;;;;;;;;;2570460;23;20327;-79
2021/12/30 03:45:02;;;;;;;6.38;4.20;;;;;;;;;;2570725;23;20090;-79
2021/12/30 03:46:05;;;;;;;14.10;7.57;;;;;;;;;;2570459;23;20008;-79
2021/12/30 03:47:06;;;;;;;9.13;4.88;;;;;;;;;;2570424;23;19997;-78
2021/12/30 03:48:07;;;;;;;4.90;3.92;;;;;;;;;;2570368;23;20000;-80
2021/12/30 03:49:09;;;;;;;;;;;;;;;;;;2570100;23;20054;-79
2021/12/30 03:50:18;;;;;;;3.97;3.58;;;;;;;;;;2569413;23;19911;-79
2021/12/30 03:51:24;;;;;;;5.00;4.50;;;;;;;;;;2570031;23;20004;-79
2021/12/30 03:52:30;;;;;;;4.72;3.88;;;;;;;;;;2571049;23;20039;-79
2021/12/30 03:53:31;;;;;;;3.33;3.03;;;;;;;;;;2571243;23;20004;-79
2021/12/30 03:54:31;;;;;;;;;;;;;;;;;;2571563;23;20011;-79
2021/12/30 03:55:32;;;;;;;2.70;2.50;;;;;;;;;;2570204;23;19912;-79
2021/12/30 03:56:34;;;;;;;;;;;;;;;;;;2558593;23;20004;-79
2021/12/30 03:57:34;;;;;;;4.93;2.92;;;;;;;;;;2570507;23;19918;-78
2021/12/30 03:58:35;;;;;;;;;;;;;;;;;;2571532;23;20445;-79
2021/12/30 03:59:36;;;;;;;3.67;2.63;;;;;;;;;;2571081;23;20222;-79
2021/12/30 04:00:37;;;;;;;;;;;;;;;;;;2571596;23;20007;-80
2021/12/30 04:01:37;;;;;;;2.80;2.60;;;;;;;;;;2570908;23;19904;-81
2021/12/30 04:02:40;;;;;;;;;;;;;;;;;;2571603;23;20016;-81
2021/12/30 04:03:42;;;;;;;3.13;2.65;;;;;;;;;;2571278;23;19903;-81
2021/12/30 04:04:42;;;;;;;2.75;2.55;;;;;;;;;;2570892;23;20027;-81
2021/12/30 04:05:44;;;;;;;;;;;;;;;;;;2571407;23;20285;-80
2021/12/30 04:06:45;;;;;;;2.47;2.28;;;;;;;;;;2570771;23;19904;-81
2021/12/30 04:07:45;;;;;;;;;;;;;;;;;;2571677;23;20017;-81
2021/12/30 04:08:46;;;;;;;2.33;2.13;;;;;;;;;;2570782;23;20313;-81
2021/12/30 04:09:46;;;;;;;;;;;;;;;;;;2557601;23;19997;-82
2021/12/30 04:10:47;;;;;;;2.73;2.53;;;;;;;;;;2557300;23;19904;-81
2021/12/30 04:11:47;;;;;;;4.20;2.33;;;;;;;;;;2557664;23;20021;-81
2021/12/30 04:12:48;;;;;;;;;;;;;;;;;;2546075;23;20036;-81
2021/12/30 04:13:49;;;;;;;2.20;2.10;;;;;;;;;;2557793;23;20321;-81
2021/12/30 04:14:49;;;;;;;;;;;;;;;;;;2558216;23;20001;-81
2021/12/30 04:15:51;;;;;;;2.50;2.10;;;;;;;;;;2557912;23;19934;-81
2021/12/30 04:16:53;;;;;;;2.75;2.53;;;;;;;;;;2569805;23;20063;-81
2021/12/30 04:17:53;;;;;;;2.90;2.33;;;;;;;;;;2569688;23;20335;-81
2021/12/30 04:18:54;;;;;;;;;;;;;;;;;;2570955;23;19996;-81
2021/12/30 04:19:54;;;;;;;2.17;2.05;;;;;;;;;;2570886;23;19904;-81
2021/12/30 04:20:54;;;;;;;;;;;;;;;;;;2571344;23;20001;-81
2021/12/30 04:21:56;;;;;;;2.40;2.20;;;;;;;;;;2570668;23;20271;-81
2021/12/30 04:22:57;;;;;;;2.13;1.98;;;;;;;;;;2570815;23;20356;-81
2021/12/30 04:23:58;;;;;;;;;;;;;;;;;;2557715;23;20073;-81
2021/12/30 04:24:58;;;;;;;3.63;2.93;;;;;;;;;;2557644;23;20308;-81
2021/12/30 04:25:58;;;;;;;;;;;;;;;;;;2558214;23;20017;-81
2021/12/30 04:26:59;;;;;;;2.50;2.30;;;;;;;;;;2545799;23;19905;-81
2021/12/30 04:27:59;;;;;;;;;;;;;;;;;;2558324;23;19997;-82
2021/12/30 04:29:00;;;;;;;2.50;2.30;;;;;;;;;;2570773;23;20307;-81
2021/12/30 04:30:00;;;;;;;;;;;;;;;;;;2558319;23;20479;-81
2021/12/30 04:31:01;;;;;;;2.63;2.27;;;;;;;;;;2557807;23;19904;-81
2021/12/30 04:32:01;;;;;;;4.60;3.15;;;;;;;;;;2570440;23;20312;-81
2021/12/30 04:33:02;;;;;;;;;;;;;;;;;;2571438;23;20011;-81
2021/12/30 04:34:02;;;;;;;2.93;2.30;;;;;;;;;;2557767;23;20303;-81
2021/12/30 04:35:03;;;;;;;;;;;;;;;;;;2546057;23;20012;-81
2021/12/30 04:36:04;;;;;;;3.10;2.80;;;;;;;;;;2557698;23;20232;-81
2021/12/30 04:37:04;;;;;;;;;;;;;;;;;;2571338;23;20023;-81
2021/12/30 04:38:07;;;;;;;2.70;2.50;;;;;;;;;;2557684;23;19908;-81
2021/12/30 04:39:08;;;;;;;2.20;2.10;;;;;;;;;;2558304;23;20001;-81
2021/12/30 04:40:10;;;;;;;2.67;2.40;;;;;;;;;;2557860;23;20005;-81
2021/12/30 04:41:11;;;;;;;2.83;2.15;;;;;;;;;;2557601;23;20405;-81
2021/12/30 04:42:11;;;;;;;;;;;;;;;;;;2571329;23;20020;-81
2021/12/30 04:43:11;;;;;;;3.28;2.13;;;;;;;;;;2570540;23;19908;-81
2021/12/30 04:44:12;;;;;;;;;;;;;;;;;;2558088;23;20420;-81
2021/12/30 04:45:14;;;;;;;2.20;2.00;;;;;;;;;;2557859;23;20331;-81
2021/12/30 04:46:14;;;;;;;2.28;1.95;;;;;;;;;;2570592;23;19996;-81
2021/12/30 04:47:15;;;;;;;;;;;;;;;;;;2571266;23;19993;-81
2021/12/30 04:48:17;;;;;;;2.30;2.10;;;;;;;;;;2557698;23;19962;-80
2021/12/30 04:49:17;;;;;;;3.92;2.17;;;;;;;;;;2557626;23;19993;-81
2021/12/30 04:50:17;;;;;;;;;;;;;;;;;;2570637;23;20403;-80
2021/12/30 04:51:18;;;;;;;2.73;2.40;;;;;;;;;;2570811;23;20311;-80
2021/12/30 04:52:19;;;;;;;;;;;;;;;;;;2557645;23;20044;-80
2021/12/30 04:53:20;;;;;;;2.20;2.00;;;;;;;;;;2557960;23;19941;-80
2021/12/30 04:54:20;;;;;;;3.13;2.45;;;;;;;;;;2570877;23;20072;-80
2021/12/30 04:55:20;;;;;;;;;;;;;;;;;;2558389;23;20408;-80
2021/12/30 04:56:21;;;;;;;2.55;2.30;;;;;;;;;;2557524;23;20205;-81
2021/12/30 04:57:21;;;;;;;;;;;;;;;;;;2558428;23;20487;-80
2021/12/30 04:58:22;;;;;;;2.13;1.92;;;;;;;;;;2570782;23;19915;-80
2021/12/30 04:59:22;;;;;;;;;;;;;;;;;;2558278;23;20032;-80
2021/12/30 05:00:23;;;;;;;4.30;2.50;;;;;;;;;;2557955;23;19904;-80
2021/12/30 05:01:23;;;;;;;;;;;;;;;;;;2571132;23;20007;-81
2021/12/30 05:02:29;;;;;;;5.13;3.07;;;;;;;;;;2570600;23;19904;-81
2021/12/30 05:03:30;;;;;;;3.25;2.75;;;;;;;;;;2570606;23;20012;-81
2021/12/30 05:04:30;;;;;;;;;;;;;;;;;;2570846;23;20012;-81
2021/12/30 05:05:31;;;;;;;3.30;2.67;;;;;;;;;;2557395;23;20296;-81
2021/12/30 05:06:32;;;;;;;;;;;;;;;;;;2558485;23;20063;-81
2021/12/30 05:07:32;;;;;;;3.92;3.22;;;;;;;;;;2570744;23;19908;-81
2021/12/30 05:08:33;;;;;;;;;;;;;;;;;;2571087;23;19992;-80
2021/12/30 05:09:33;;;;;;;3.45;3.15;;;;;;;;;;2570535;23;19933;-81
2021/12/30 05:10:34;;;;;;;;;;;;;;;;;;2571058;23;20376;-80
2021/12/30 05:11:41;;;;;;;3.90;3.33;;;;;;;;;;2570795;23;20014;-80
2021/12/30 05:12:42;;;;;;;5.95;3.33;;;;;;;;;;2570682;23;20008;-80
2021/12/30 05:13:42;;;;;;;;;;;;;;;;;;2571055;23;20028;-80
2021/12/30 05:14:42;;;;;;;3.95;3.10;;;;;;;;;;2570564;23;20208;-80
2021/12/30 05:15:54;;;;;;;;;;;;;;;;;;2570934;23;20079;-80
2021/12/30 05:17:02;;;;;;;3.95;3.45;;;;;;;;;;2570128;23;19904;-80
2021/12/30 05:18:04;;;;;;;3.40;3.08;;;;;;;;;;2570286;23;20000;-79
2021/12/30 05:19:05;;;;;;;3.22;2.75;;;;;;;;;;2570553;23;20034;-78
2021/12/30 05:20:06;;;;;;;;;;;;;;;;;;2570699;23;20026;-80
2021/12/30 05:21:06;;;;;;;3.10;2.73;;;;;;;;;;2570084;23;20359;-79
2021/12/30 05:22:07;;;;;;;;;;;;;;;;;;2571152;23;20663;-78
2021/12/30 05:23:08;;;;;;;3.30;3.00;;;;;;;;;;2570722;23;19922;-80
2021/12/30 05:24:08;;;;;;;;;;;;;;;;;;2570661;23;20024;-78
2021/12/30 05:25:15;;;;;;;3.45;3.17;;;;;;;;;;2570110;23;19993;-79
2021/12/30 05:26:16;;;;;;;3.58;3.28;;;;;;;;;;2570562;23;20072;-79
2021/12/30 05:27:18;;;;;;;4.38;3.30;;;;;;;;;;2570559;23;19993;-79
2021/12/30 05:28:18;;;;;;;2.83;2.55;;;;;;;;;;2569981;23;19997;-81
2021/12/30 05:29:18;;;;;;;;;;;;;;;;;;2571378;23;20339;-80
2021/12/30 05:30:23;;;;;;;3.10;2.80;;;;;;;;;;2583540;23;20058;-80
2021/12/30 05:31:27;;;;;;;5.72;3.20;;;;;;;;;;2571019;23;20001;-79
2021/12/30 05:32:27;;;;;;;4.10;3.03;;;;;;;;;;2571293;23;20050;-79
2021/12/30 05:33:28;;;;;;;;;;;;;;;;;;2571452;23;20001;-79
2021/12/30 05:34:28;;;;;;;4.65;3.80;;;;;;;;;;2558596;23;20305;-79
2021/12/30 05:35:29;;;;;;;;;;;;;;;;;;2571547;23;20058;-80
2021/12/30 05:36:29;;;;;;;4.90;4.13;;;;;;;;;;2571452;23;19903;-79
2021/12/30 05:37:29;;;;;;;;;;;;;;;;;;2571888;23;20274;-80
2021/12/30 05:38:30;;;;;;;4.88;4.05;;;;;;;;;;2570800;23;19904;-79
2021/12/30 05:39:30;;;;;;;;;;;;;;;;;;2571371;23;19997;-80
2021/12/30 05:40:32;;;;;;;5.63;3.60;;;;;;;;;;2571528;23;19923;-80
2021/12/30 05:41:35;;;;;;;5.07;3.90;;;;;;;;;;2571342;23;20138;-79
2021/12/30 05:42:36;;;;;;;4.53;4.10;;;;;;;;;;2570765;23;20059;-79
2021/12/30 05:43:36;;;;;;;;;;;;;;;;;;2558970;23;20031;-79
2021/12/30 05:44:37;;;;;;;6.33;4.40;;;;;;;;;;2570936;23;20227;-80
2021/12/30 05:45:37;;;;;;;;;;;;;;;;;;2571956;23;20000;-79
2021/12/30 05:46:38;;;;;;;4.50;4.10;;;;;;;;;;2571544;23;20322;-80
2021/12/30 05:47:38;;;;;;;;;;;;;;;;;;2571971;23;20477;-80
2021/12/30 05:48:38;;;;;;;7.65;4.88;;;;;;;;;;2570783;23;19935;-79
2021/12/30 05:49:39;;;;;;;;;;;;;;;;;;2571447;23;20001;-79
2021/12/30 05:50:41;;;;;;;6.95;5.97;;;;;;;;;;2571502;23;19931;-79
2021/12/30 05:51:42;;;;;;;8.13;6.28;;;;;;;;;;2570738;23;19997;-79
2021/12/30 05:52:42;;;;;;;;;;;;;;;;;;2571242;23;20047;-80
2021/12/30 05:53:43;;;;;;;10.32;8.43;;;;;;;;;;2571297;23;19914;-81
2021/12/30 05:54:43;;;;;;;;;;;;;;;;;;2571961;23;20009;-80
2021/12/30 05:55:44;;;;;;;14.98;8.25;;;;;;;;;;2570619;23;19904;-80
2021/12/30 05:56:44;;;;;;;12.35;8.80;;;;;;;;;;2570783;23;19996;-80
2021/12/30 05:57:44;;;;;;;;;;;;;;;;;;2571809;23;20055;-80
2021/12/30 05:58:45;;;;;;;12.00;9.43;;;;;;;;;;2570616;23;19943;-79
2021/12/30 05:59:45;;;;;;;;;;;;;;;;;;2571173;23;19997;-80
2021/12/30 06:00:47;;;;;;;11.38;9.00;;;;;;;;;;2570639;23;19904;-80
2021/12/30 06:01:48;;;;;;;10.20;8.73;;;;;;;;;;2570603;23;20004;-80
2021/12/30 06:02:48;;;;;;;;;;;;;;;;;;2571390;23;20423;-80
2021/12/30 06:03:49;;;;;;;9.98;8.25;;;;;;;;;;2571369;23;19928;-80
2021/12/30 06:04:49;;;;;;;;;;;;;;;;;;2571821;23;20079;-80
2021/12/30 06:05:50;;;;;;;9.85;6.75;;;;;;;;;;2571155;23;20256;-80
2021/12/30 06:06:50;;;;;;;;;;;;;;;;;;2571715;23;20052;-80
2021/12/30 06:07:51;;;;;;;10.03;6.53;;;;;;;;;;2571279;23;20247;-80
2021/12/30 06:08:53;;;;;;;;;;;;;;;;;;2558568;23;20344;-80
2021/12/30 06:09:53;;;;;;;6.40;5.57;;;;;;;;;;2558075;23;19967;-80
2021/12/30 06:10:53;;;;;;;;;;;;;;;;;;2558611;23;20025;-79
2021/12/30 06:11:54;;;;;;;8.23;6.60;;;;;;;;;;2558043;23;19904;-80
2021/12/30 06:12:54;;;;;;;;;;;;;;;;;;2571410;23;20004;-79
2021/12/30 06:13:54;;;;;;;9.77;6.53;;;;;;;;;;2570807;23;19927;-79
2021/12/30 06:14:55;;;;;;;;;;;;;;;;;;2571289;23;20079;-78
2021/12/30 06:15:56;;;;;;;8.93;6.63;;;;;;;;;;2570834;23;19907;-79
2021/12/30 06:16:56;;;;;;;;;;;;;;;;;;2571781;23;20008;-80
2021/12/30 06:17:56;;;;;;;11.60;6.65;;;;;;;;;;2557951;23;19991;-82
2021/12/30 06:18:57;;;;;;;;;;;;;;;;;;2558769;23;20029;-80
2021/12/30 06:19:57;;;;;;;11.48;6.28;;;;;;;;;;2571208;23;19904;-80
2021/12/30 06:20:58;;;;;;;8.60;6.95;;;;;;;;;;2571188;23;20051;-80
2021/12/30 06:21:58;;;;;;;;;;;;;;;;;;2571858;23;20003;-80
2021/12/30 06:22:59;;;;;;;9.95;7.10;;;;;;;;;;2570939;23;19927;-80
2021/12/30 06:23:59;;;;;;;;;;;;;;;;;;2571662;23;20452;-80
2021/12/30 06:24:59;;;;;;;8.13;7.13;;;;;;;;;;2570974;23;19907;-80
2021/12/30 06:26:00;;;;;;;13.63;10.27;;;;;;;;;;2571020;23;20051;-80
2021/12/30 06:27:00;;;;;;;;;;;;;;;;;;2571573;23;20015;-78
2021/12/30 06:28:00;;;;;;;15.85;10.73;;;;;;;;;;2557922;23;20324;-81
2021/12/30 06:29:01;;;;;;;;;;;;;;;;;;2558644;23;20428;-80
2021/12/30 06:30:02;;;;;;;13.87;10.87;;;;;;;;;;2570954;23;19986;-80
2021/12/30 06:31:02;;;;;;;15.63;12.95;;;;;;;;;;2570938;23;20076;-80
2021/12/30 06:32:03;;;;;;;;;;;;;;;;;;2558555;23;20009;-80
2021/12/30 06:33:03;;;;;;;31.73;21.80;;;;;;;;;;2558182;23;19912;-80